createdAt,value
2018-05-13T00:02:09.415Z,19.03
2018-05-13T00:04:37.656Z,20.37
2018-05-13T00:07:05.465Z,19.80
2018-05-13T00:09:33.714Z,20.03
2018-05-13T00:12:01.273Z,20.73
2018-05-13T00:14:28.997Z,20.10
2018-05-13T00:16:57.004Z,20.43
2018-05-13T00:19:24.491Z,20.07
2018-05-13T00:21:52.317Z,19.70
2018-05-13T00:24:19.796Z,23.37
2018-05-13T00:26:48.066Z,20.13
2018-05-13T00:29:16.630Z,22.00
2018-05-13T00:31:44.125Z,21.80
2018-05-13T00:34:11.607Z,20.33
2018-05-13T00:36:39.437Z,21.30
2018-05-13T00:39:06.947Z,20.27
2018-05-13T00:41:34.432Z,19.67
2018-05-13T00:44:02.207Z,20.73
2018-05-13T00:46:30.458Z,21.00
2018-05-13T00:48:57.966Z,20.47
2018-05-13T00:51:25.724Z,20.17
2018-05-13T00:53:53.223Z,19.83
2018-05-13T00:56:20.713Z,20.70
2018-05-13T00:58:48.501Z,20.47
2018-05-13T01:01:15.986Z,20.07
2018-05-13T01:03:43.498Z,20.90
2018-05-13T01:06:11.770Z,21.17
2018-05-13T01:08:39.258Z,20.57
2018-05-13T01:11:06.740Z,21.00
2018-05-13T01:13:34.559Z,20.70
2018-05-13T01:16:02.820Z,20.50
2018-05-13T01:18:30.306Z,21.77
2018-05-13T01:20:58.119Z,22.00
2018-05-13T01:23:25.608Z,23.27
2018-05-13T01:25:53.852Z,20.87
2018-05-13T01:28:21.641Z,22.80
2018-05-13T01:30:49.140Z,22.80
2018-05-13T01:33:16.615Z,22.20
2018-05-13T01:35:44.411Z,23.30
2018-05-13T01:38:11.928Z,21.87
2018-05-13T01:40:39.399Z,22.77
2018-05-13T01:43:07.147Z,23.00
2018-05-13T01:45:34.637Z,24.13
2018-05-13T01:48:02.117Z,22.77
2018-05-13T01:50:30.665Z,23.00
2018-05-13T01:52:58.154Z,23.13
2018-05-13T01:55:25.648Z,23.00
2018-05-13T01:57:53.494Z,23.60
2018-05-13T02:00:21.745Z,22.97
2018-05-13T02:02:49.224Z,24.20
2018-05-13T02:05:17.772Z,24.67
2018-05-13T02:07:45.250Z,23.83
2018-05-13T02:10:12.723Z,24.87
2018-05-13T02:12:41.239Z,25.60
2018-05-13T02:15:08.731Z,24.87
2018-05-13T02:17:36.212Z,25.23
2018-05-13T02:20:04.760Z,25.57
2018-05-13T02:22:32.246Z,24.97
2018-05-13T02:25:00.500Z,25.70
2018-05-13T02:27:28.328Z,24.10
2018-05-13T02:29:55.811Z,24.83
2018-05-13T02:32:23.308Z,25.17
2018-05-13T02:34:52.006Z,25.70
2018-05-13T02:37:19.497Z,25.60
2018-05-13T02:39:46.981Z,25.70
2018-05-13T02:42:14.752Z,27.00
2018-05-13T02:44:43.022Z,26.60
2018-05-13T02:47:10.507Z,26.40
2018-05-13T02:49:39.042Z,26.67
2018-05-13T02:52:06.535Z,26.70
2018-05-13T02:54:34.819Z,27.03
2018-05-13T02:57:02.641Z,27.23
2018-05-13T02:59:30.138Z,26.57
2018-05-13T03:01:57.598Z,26.87
2018-05-13T03:04:25.457Z,26.67
2018-05-13T03:06:52.956Z,28.07
2018-05-13T03:09:20.520Z,27.00
2018-05-13T03:11:48.316Z,27.20
2018-05-13T03:14:15.794Z,28.00
2018-05-13T03:16:43.297Z,27.87
2018-05-13T03:19:11.086Z,25.93
2018-05-13T03:21:38.586Z,29.47
2018-05-13T03:24:06.123Z,28.27
2018-05-13T03:26:33.924Z,27.70
2018-05-13T03:29:01.491Z,27.90
2018-05-13T03:31:28.966Z,30.17
2018-05-13T03:33:56.762Z,28.57
2018-05-13T03:36:24.253Z,28.50
2018-05-13T03:38:52.497Z,30.50
2018-05-13T03:41:20.282Z,29.50
2018-05-13T03:43:48.999Z,28.70
2018-05-13T03:46:16.486Z,30.47
2018-05-13T03:48:43.995Z,29.27
2018-05-13T03:51:11.549Z,27.80
2018-05-13T03:53:39.048Z,30.30
2018-05-13T03:56:06.856Z,29.17
2018-05-13T03:58:34.330Z,28.67
2018-05-13T04:01:02.605Z,27.60
2018-05-13T04:03:30.878Z,28.50
2018-05-13T04:05:58.384Z,28.93
2018-05-13T04:08:47.258Z,29.60
2018-05-13T04:11:26.551Z,31.33
2018-05-13T04:14:06.170Z,28.50
2018-05-13T04:16:33.660Z,29.33
2018-05-13T04:19:01.165Z,29.70
2018-05-13T04:21:29.779Z,29.70
2018-05-13T04:23:57.278Z,30.05
2018-05-13T04:26:24.800Z,31.50
2018-05-13T04:28:52.609Z,36.67
2018-05-13T04:31:20.090Z,37.77
2018-05-13T04:33:48.349Z,40.83
2018-05-13T04:36:15.843Z,41.60
2018-05-13T04:38:43.343Z,45.03
2018-05-13T04:41:10.850Z,47.17
2018-05-13T04:43:39.381Z,47.53
2018-05-13T04:46:06.862Z,44.50
2018-05-13T04:48:34.351Z,48.87
2018-05-13T04:51:02.944Z,47.03
2018-05-13T04:53:30.464Z,46.50
2018-05-13T04:55:57.971Z,47.60
2018-05-13T04:58:25.810Z,47.80
2018-05-13T05:00:53.283Z,50.10
2018-05-13T05:03:20.775Z,50.47
2018-05-13T05:05:48.547Z,51.70
2018-05-13T05:08:16.052Z,48.20
2018-05-13T05:10:43.518Z,48.43
2018-05-13T05:13:11.338Z,49.20
2018-05-13T05:15:38.835Z,47.40
2018-05-13T05:18:06.341Z,49.65
2018-05-13T05:20:34.150Z,44.50
2018-05-13T05:23:01.662Z,41.15
2018-05-13T05:25:29.161Z,37.13
2018-05-13T05:27:57.765Z,36.08
2018-05-13T05:30:25.295Z,30.53
2018-05-13T05:32:53.554Z,32.75
2018-05-13T05:35:21.377Z,30.80
2018-05-13T05:37:48.898Z,30.33
2018-05-13T05:40:17.145Z,27.77
2018-05-13T05:42:44.654Z,26.08
2018-05-13T05:45:12.141Z,25.43
2018-05-13T05:47:39.623Z,24.27
2018-05-13T05:50:07.491Z,21.45
2018-05-13T05:52:34.982Z,23.13
2018-05-13T05:55:03.225Z,21.60
2018-05-13T05:57:31.026Z,23.17
2018-05-13T05:59:58.539Z,22.50
2018-05-13T06:02:26.035Z,25.00
2018-05-13T06:04:54.598Z,23.67
2018-05-13T06:07:22.092Z,22.87
2018-05-13T06:09:49.618Z,22.33
2018-05-13T06:12:17.961Z,22.80
2018-05-13T06:14:45.413Z,23.20
2018-05-13T06:17:13.014Z,23.90
2018-05-13T06:19:40.536Z,24.30
2018-05-13T06:22:08.015Z,22.77
2018-05-13T06:24:35.528Z,23.40
2018-05-13T06:27:03.036Z,23.10
2018-05-13T06:29:31.299Z,22.80
2018-05-13T06:31:58.859Z,23.00
2018-05-13T06:34:26.590Z,22.00
2018-05-13T06:36:54.071Z,20.83
2018-05-13T06:39:21.588Z,21.43
2018-05-13T06:41:49.370Z,21.87
2018-05-13T06:44:16.865Z,20.93
2018-05-13T06:46:45.160Z,20.00
2018-05-13T06:49:13.740Z,20.27
2018-05-13T06:51:42.030Z,21.20
2018-05-13T06:54:10.309Z,22.60
2018-05-13T06:56:39.026Z,23.30
2018-05-13T06:59:06.511Z,23.17
2018-05-13T07:01:34.020Z,22.80
2018-05-13T07:04:01.842Z,22.50
2018-05-13T07:06:31.117Z,23.30
2018-05-13T07:08:58.711Z,21.80
2018-05-13T07:11:27.291Z,24.00
2018-05-13T07:13:54.783Z,23.17
2018-05-13T07:16:22.297Z,24.10
2018-05-13T07:18:50.022Z,23.40
2018-05-13T07:21:17.508Z,22.80
2018-05-13T07:23:45.039Z,23.40
2018-05-13T07:26:13.578Z,26.17
2018-05-13T07:28:41.831Z,25.92
2018-05-13T07:31:09.318Z,26.87
2018-05-13T07:33:37.127Z,26.00
2018-05-13T07:36:04.629Z,26.37
2018-05-13T07:38:32.916Z,27.73
2018-05-13T07:41:01.431Z,28.67
2018-05-13T07:43:29.004Z,27.37
2018-05-13T07:45:56.442Z,26.08
2018-05-13T07:48:24.718Z,27.90
2018-05-13T07:50:52.273Z,31.35
2018-05-13T07:53:19.775Z,30.35
2018-05-13T07:55:47.523Z,26.75
2018-05-13T07:58:16.718Z,30.05
2018-05-13T08:00:44.312Z,28.83
2018-05-13T08:03:12.858Z,28.15
2018-05-13T08:05:40.422Z,29.27
2018-05-13T08:08:07.931Z,31.45
2018-05-13T08:10:35.747Z,29.73
2018-05-13T08:13:03.254Z,27.08
2018-05-13T08:15:30.738Z,25.65
2018-05-13T08:17:58.293Z,28.60
2018-05-13T08:20:25.946Z,24.07
2018-05-13T08:22:53.363Z,27.27
2018-05-13T08:25:21.637Z,26.37
2018-05-13T08:27:49.914Z,25.50
2018-05-13T08:30:18.207Z,28.05
2018-05-13T08:32:46.026Z,26.83
2018-05-13T08:35:13.550Z,25.00
2018-05-13T08:37:41.038Z,23.90
2018-05-13T08:40:08.609Z,24.77
2018-05-13T08:42:36.890Z,23.63
2018-05-13T08:45:04.415Z,24.60
2018-05-13T08:47:32.177Z,23.97
2018-05-13T08:49:59.664Z,23.70
2018-05-13T08:52:27.171Z,25.50
2018-05-13T08:54:54.965Z,25.07
2018-05-13T08:57:22.496Z,23.33
2018-05-13T08:59:49.991Z,24.10
2018-05-13T09:02:17.754Z,23.40
2018-05-13T09:04:45.255Z,24.17
2018-05-13T09:07:13.507Z,24.73
2018-05-13T09:09:41.016Z,23.30
2018-05-13T09:12:08.534Z,24.73
2018-05-13T09:14:36.810Z,24.90
2018-05-13T09:17:05.115Z,25.50
2018-05-13T09:19:33.367Z,25.90
2018-05-13T09:22:01.622Z,27.33
2018-05-13T09:24:29.126Z,26.10
2018-05-13T09:26:56.617Z,26.47
2018-05-13T09:29:24.118Z,27.33
2018-05-13T09:31:52.366Z,27.07
2018-05-13T09:34:19.871Z,27.00
2018-05-13T09:36:47.362Z,27.00
2018-05-13T09:39:14.927Z,27.97
2018-05-13T09:41:42.430Z,26.50
2018-05-13T09:44:10.678Z,25.60
2018-05-13T09:46:38.186Z,26.47
2018-05-13T09:49:05.678Z,25.90
2018-05-13T09:51:33.153Z,28.47
2018-05-13T09:54:00.654Z,25.10
2018-05-13T09:56:28.154Z,27.90
2018-05-13T09:58:55.702Z,28.67
2018-05-13T10:01:23.482Z,27.23
2018-05-13T10:03:51.007Z,29.17
2018-05-13T10:06:18.495Z,29.10
2018-05-13T10:08:46.026Z,28.97
2018-05-13T10:11:13.512Z,28.00
2018-05-13T10:13:40.991Z,25.90
2018-05-13T10:16:08.510Z,27.40
2018-05-13T10:18:36.020Z,27.10
2018-05-13T10:21:03.544Z,26.83
2018-05-13T10:23:31.030Z,27.40
2018-05-13T10:25:59.296Z,29.03
2018-05-13T10:28:27.558Z,29.00
2018-05-13T10:30:55.048Z,27.50
2018-05-13T10:33:22.583Z,26.47
2018-05-13T10:35:50.067Z,26.33
2018-05-13T10:38:17.618Z,28.80
2018-05-13T10:40:45.358Z,26.90
2018-05-13T10:43:12.866Z,25.00
2018-05-13T10:45:40.447Z,25.50
2018-05-13T10:48:07.944Z,22.70
2018-05-13T10:50:35.918Z,22.80
2018-05-13T10:53:03.438Z,22.70
2018-05-13T10:55:30.944Z,22.50
2018-05-13T10:57:59.480Z,23.67
2018-05-13T11:00:27.010Z,22.20
2018-05-13T11:02:54.542Z,20.83
2018-05-13T11:05:22.807Z,20.60
2018-05-13T11:07:51.079Z,20.77
2018-05-13T11:10:19.436Z,21.00
2018-05-13T11:12:46.899Z,22.17
2018-05-13T11:15:15.196Z,21.60
2018-05-13T11:17:42.719Z,20.30
2018-05-13T11:20:10.317Z,19.67
2018-05-13T11:22:37.789Z,20.57
2018-05-13T11:25:05.302Z,21.57
2018-05-13T11:27:32.783Z,20.97
2018-05-13T11:30:00.310Z,20.73
2018-05-13T11:32:27.847Z,19.77
2018-05-13T11:34:55.350Z,19.13
2018-05-13T11:37:22.869Z,20.00
2018-05-13T11:39:50.435Z,19.50
2018-05-13T11:42:17.878Z,19.00
2018-05-13T11:44:45.386Z,17.20
2018-05-13T11:47:13.650Z,18.60
2018-05-13T11:49:41.917Z,17.90
2018-05-13T11:52:09.462Z,17.03
2018-05-13T11:54:36.966Z,17.90
2018-05-13T11:57:05.214Z,17.70
2018-05-13T11:59:32.764Z,17.23
2018-05-13T12:02:00.271Z,16.50
2018-05-13T12:04:27.746Z,17.30
2018-05-13T12:06:55.285Z,16.63
2018-05-13T12:09:22.758Z,17.80
2018-05-13T12:11:50.267Z,17.07
2018-05-13T12:14:17.834Z,16.87
2018-05-13T12:16:46.105Z,16.70
2018-05-13T12:19:14.378Z,17.03
2018-05-13T12:21:42.298Z,16.33
2018-05-13T12:24:09.867Z,16.80
2018-05-13T12:26:37.645Z,16.27
2018-05-13T12:29:05.467Z,16.20
2018-05-13T12:31:33.166Z,17.00
2018-05-13T12:34:00.754Z,16.23
2018-05-13T12:36:28.278Z,16.37
2018-05-13T12:38:55.786Z,16.20
2018-05-13T12:41:24.053Z,16.10
2018-05-13T12:43:52.311Z,15.90
2018-05-13T12:46:19.790Z,17.37
2018-05-13T12:48:48.069Z,15.97
2018-05-13T12:51:16.678Z,17.20
2018-05-13T12:53:44.191Z,17.00
2018-05-13T12:56:12.568Z,19.47
2018-05-13T12:58:41.063Z,18.53
2018-05-13T13:01:09.342Z,18.17
2018-05-13T13:03:37.662Z,19.10
2018-05-13T13:06:05.170Z,19.17
2018-05-13T13:08:33.445Z,18.57
2018-05-13T13:11:00.941Z,18.47
2018-05-13T13:13:28.551Z,18.50
2018-05-13T13:15:56.091Z,18.30
2018-05-13T13:18:23.720Z,18.87
2018-05-13T13:20:51.257Z,17.47
2018-05-13T13:23:19.552Z,18.10
2018-05-13T13:25:47.082Z,17.97
2018-05-13T13:28:14.896Z,18.70
2018-05-13T13:30:42.480Z,18.33
2018-05-13T13:33:10.090Z,18.13
2018-05-13T13:35:37.636Z,19.07
2018-05-13T13:38:05.899Z,16.80
2018-05-13T13:40:34.260Z,25.10
2018-05-13T13:43:02.166Z,20.30
2018-05-13T13:45:29.802Z,18.47
2018-05-13T13:47:58.101Z,21.10
2018-05-13T13:50:25.866Z,19.60
2018-05-13T13:52:53.450Z,20.20
2018-05-13T13:55:20.979Z,20.60
2018-05-13T13:57:48.494Z,20.30
2018-05-13T14:00:16.045Z,22.07
2018-05-13T14:02:43.570Z,21.60
2018-05-13T14:05:11.091Z,21.67
2018-05-13T14:07:39.410Z,22.00
2018-05-13T14:10:06.940Z,21.42
2018-05-13T14:12:34.540Z,22.30
2018-05-13T14:15:02.102Z,21.57
2018-05-13T14:17:29.646Z,24.25
2018-05-13T14:19:57.248Z,23.10
2018-05-13T14:22:25.516Z,22.70
2018-05-13T14:24:53.086Z,22.30
2018-05-13T14:27:20.619Z,23.03
2018-05-13T14:29:48.098Z,23.70
2018-05-13T14:32:15.757Z,25.65
2018-05-13T14:34:43.272Z,26.33
2018-05-13T14:37:10.775Z,26.17
2018-05-13T14:39:38.298Z,27.70
2018-05-13T14:42:05.827Z,25.55
2018-05-13T14:44:33.352Z,27.70
2018-05-13T14:47:00.860Z,26.00
2018-05-13T14:49:28.399Z,28.75
2018-05-13T14:51:55.938Z,28.60
2018-05-13T14:54:24.453Z,28.77
2018-05-13T14:56:52.017Z,30.20
2018-05-13T14:59:19.585Z,30.90
2018-05-13T15:01:47.130Z,29.50
2018-05-13T15:04:14.655Z,29.57
2018-05-13T15:06:42.167Z,30.00
2018-05-13T15:09:09.652Z,29.33
2018-05-13T15:11:37.222Z,28.90
2018-05-13T15:14:04.723Z,28.47
2018-05-13T15:16:32.303Z,28.90
2018-05-13T15:19:00.101Z,27.85
2018-05-13T15:21:27.577Z,28.20
2018-05-13T15:23:55.135Z,29.65
2018-05-13T15:26:22.669Z,30.60
2018-05-13T15:28:50.183Z,31.33
2018-05-13T15:31:17.678Z,31.85
2018-05-13T15:33:45.238Z,31.95
2018-05-13T15:36:12.786Z,29.77
2018-05-13T15:38:40.418Z,31.05
2018-05-13T15:41:07.910Z,30.45
2018-05-13T15:43:35.398Z,31.83
2018-05-13T15:46:03.668Z,32.33
2018-05-13T15:48:31.186Z,30.73
2018-05-13T15:50:58.722Z,31.87
2018-05-13T15:53:26.261Z,30.65
2018-05-13T15:55:53.805Z,31.20
2018-05-13T15:58:21.348Z,30.37
2018-05-13T16:00:48.864Z,30.35
2018-05-13T16:03:16.371Z,30.08
2018-05-13T16:05:43.941Z,29.60
2018-05-13T16:08:11.454Z,28.00
2018-05-13T16:10:39.951Z,27.13
2018-05-13T16:13:07.480Z,25.42
2018-05-13T16:15:35.096Z,27.37
2018-05-13T16:18:03.009Z,26.02
2018-05-13T16:20:30.521Z,25.55
2018-05-13T16:22:58.005Z,25.25
2018-05-13T16:25:25.575Z,26.35
2018-05-13T16:27:53.096Z,27.77
2018-05-13T16:30:20.633Z,28.48
2018-05-13T16:32:48.252Z,29.30
2018-05-13T16:35:16.796Z,24.40
2018-05-13T16:37:44.348Z,27.52
2018-05-13T16:40:12.148Z,26.85
2018-05-13T16:42:39.749Z,27.10
2018-05-13T16:45:07.536Z,26.55
2018-05-13T16:47:35.064Z,27.00
2018-05-13T16:50:02.566Z,25.60
2018-05-13T16:52:30.125Z,25.42
2018-05-13T16:54:57.645Z,28.02
2018-05-13T16:57:25.302Z,27.52
2018-05-13T16:59:53.580Z,29.52
2018-05-13T17:02:21.179Z,28.83
2018-05-13T17:04:48.622Z,27.45
2018-05-13T17:07:16.923Z,30.17
2018-05-13T17:09:44.443Z,29.98
2018-05-13T17:12:12.039Z,30.37
2018-05-13T17:14:39.534Z,28.38
2018-05-13T17:17:07.123Z,27.90
2018-05-13T17:19:34.622Z,29.75
2018-05-13T17:22:02.121Z,30.73
2018-05-13T17:24:29.908Z,31.20
2018-05-13T17:26:58.197Z,30.10
2018-05-13T17:29:26.494Z,31.00
2018-05-13T17:31:54.314Z,31.08
2018-05-13T17:34:21.799Z,30.65
2018-05-13T17:36:50.055Z,30.33
2018-05-13T17:39:17.585Z,31.62
2018-05-13T17:41:45.083Z,30.67
2018-05-13T17:44:13.356Z,32.92
2018-05-13T17:46:41.179Z,32.55
2018-05-13T17:49:08.688Z,31.17
2018-05-13T17:51:36.991Z,30.45
2018-05-13T17:54:06.824Z,31.23
2018-05-13T17:56:34.358Z,32.15
2018-05-13T17:59:01.882Z,29.70
2018-05-13T18:01:29.390Z,29.60
2018-05-13T18:03:57.300Z,33.33
2018-05-13T18:06:25.075Z,29.98
2018-05-13T18:08:53.342Z,29.12
2018-05-13T18:11:20.853Z,29.85
2018-05-13T18:13:48.367Z,30.90
2018-05-13T18:16:16.632Z,30.33
2018-05-13T18:18:44.126Z,33.30
2018-05-13T18:21:11.626Z,31.20
2018-05-13T18:23:39.170Z,30.17
2018-05-13T18:26:06.709Z,30.98
2018-05-13T18:28:34.233Z,29.67
2018-05-13T18:31:01.766Z,28.90
2018-05-13T18:33:29.280Z,30.02
2018-05-13T18:35:56.774Z,29.83
2018-05-13T18:38:24.262Z,29.17
2018-05-13T18:40:51.787Z,31.33
2018-05-13T18:43:19.287Z,29.48
2018-05-13T18:45:47.550Z,30.35
2018-05-13T18:48:15.826Z,29.35
2018-05-13T18:50:43.328Z,28.90
2018-05-13T18:53:10.863Z,26.35
2018-05-13T18:55:39.235Z,27.13
2018-05-13T18:58:06.749Z,27.75
2018-05-13T19:00:34.269Z,25.52
2018-05-13T19:03:01.812Z,28.83
2018-05-13T19:05:30.074Z,26.95
2018-05-13T19:07:57.640Z,26.35
2018-05-13T19:10:25.920Z,26.65
2018-05-13T19:12:53.448Z,27.77
2018-05-13T19:15:20.964Z,26.92
2018-05-13T19:17:48.568Z,26.15
2018-05-13T19:20:16.094Z,28.15
2018-05-13T19:22:43.615Z,25.98
2018-05-13T19:25:11.106Z,26.95
2018-05-13T19:27:38.585Z,27.52
2018-05-13T19:30:06.120Z,27.02
2018-05-13T19:32:33.620Z,27.98
2018-05-13T19:35:01.166Z,28.92
2018-05-13T19:37:29.076Z,31.00
2018-05-13T19:39:56.581Z,31.02
2018-05-13T19:42:24.069Z,30.40
2018-05-13T19:44:52.388Z,30.40
2018-05-13T19:47:19.919Z,33.00
2018-05-13T19:49:47.433Z,31.00
2018-05-13T19:52:15.035Z,32.35
2018-05-13T19:54:43.318Z,32.83
2018-05-13T19:57:10.860Z,34.15
2018-05-13T19:59:38.646Z,34.17
2018-05-13T20:02:06.163Z,32.72
2018-05-13T20:04:33.638Z,31.98
2018-05-13T20:07:01.126Z,32.13
2018-05-13T20:09:28.686Z,33.35
2018-05-13T20:11:56.169Z,31.58
2018-05-13T20:14:23.687Z,32.38
2018-05-13T20:16:52.093Z,31.48
2018-05-13T20:19:19.581Z,33.30
2018-05-13T20:21:47.120Z,27.58
2018-05-13T20:24:14.800Z,29.65
2018-05-13T20:26:42.309Z,29.23
2018-05-13T20:29:09.832Z,30.95
2018-05-13T20:31:38.245Z,28.38
2018-05-13T20:34:05.761Z,29.08
2018-05-13T20:36:33.294Z,28.50
2018-05-13T20:39:00.779Z,28.30
2018-05-13T20:41:28.265Z,27.83
2018-05-13T20:43:55.768Z,29.27
2018-05-13T20:46:23.243Z,29.20
2018-05-13T20:48:50.742Z,28.00
2018-05-13T20:51:18.315Z,29.87
2018-05-13T20:53:45.782Z,28.70
2018-05-13T20:56:13.262Z,29.35
2018-05-13T20:58:40.810Z,28.65
2018-05-13T21:01:08.309Z,28.85
2018-05-13T21:03:35.790Z,30.83
2018-05-13T21:06:03.307Z,29.25
2018-05-13T21:08:30.787Z,30.52
2018-05-13T21:10:59.118Z,31.40
2018-05-13T21:13:26.894Z,30.67
2018-05-13T21:15:54.408Z,30.65
2018-05-13T21:18:22.109Z,32.42
2018-05-13T21:20:49.679Z,31.92
2018-05-13T21:23:17.222Z,31.60
2018-05-13T21:28:17.486Z,29.33
2018-05-13T21:30:44.978Z,29.33
2018-05-13T21:33:12.510Z,31.33
2018-05-13T21:35:52.990Z,30.83
2018-05-13T21:38:23.395Z,31.40
2018-05-13T21:40:52.829Z,29.95
2018-05-13T21:43:33.117Z,30.42
2018-05-13T21:46:05.280Z,31.30
2018-05-13T21:48:37.490Z,32.47
2018-05-13T21:51:07.098Z,31.27
2018-05-13T21:53:38.201Z,32.70
2018-05-13T21:56:05.770Z,30.90
2018-05-13T21:58:33.307Z,29.63
2018-05-13T22:01:00.814Z,29.87
2018-05-13T22:03:28.303Z,28.25
2018-05-13T22:05:55.802Z,28.70
2018-05-13T22:08:23.318Z,30.10
2018-05-13T22:10:50.809Z,30.75
2018-05-13T22:13:18.322Z,30.60
2018-05-13T22:15:46.639Z,31.10
2018-05-13T22:18:14.142Z,30.27
2018-05-13T22:20:42.418Z,30.17
2018-05-13T22:23:09.938Z,30.35
2018-05-13T22:25:37.464Z,30.20
2018-05-13T22:28:05.990Z,30.58
2018-05-13T22:30:33.493Z,31.92
2018-05-13T22:33:01.740Z,33.10
2018-05-13T22:35:29.561Z,31.02
2018-05-13T22:37:57.038Z,30.30
2018-05-13T22:40:24.517Z,31.85
2018-05-13T22:42:52.338Z,31.77
2018-05-13T22:45:19.811Z,31.33
2018-05-13T22:47:47.315Z,33.58
2018-05-13T22:50:15.926Z,30.98
2018-05-13T22:52:43.417Z,33.15
2018-05-13T22:55:10.891Z,32.88
2018-05-13T22:57:38.638Z,31.92
2018-05-13T23:00:06.117Z,31.10
2018-05-13T23:02:33.608Z,31.20
2018-05-13T23:05:01.387Z,30.20
2018-05-13T23:07:28.882Z,31.77
2018-05-13T23:09:58.079Z,31.17
2018-05-13T23:12:25.822Z,33.92
2018-05-13T23:14:53.299Z,31.70
2018-05-13T23:17:20.806Z,32.70
2018-05-13T23:19:48.629Z,31.83
2018-05-13T23:22:27.849Z,31.33
2018-05-13T23:24:55.340Z,32.70
2018-05-13T23:27:23.600Z,34.65
2018-05-13T23:29:51.979Z,35.70
2018-05-13T23:32:19.790Z,34.45
2018-05-13T23:34:47.251Z,35.58
2018-05-13T23:37:14.734Z,35.10
2018-05-13T23:39:42.525Z,35.67
2018-05-13T23:42:10.061Z,37.08
2018-05-13T23:44:37.602Z,38.80
2018-05-13T23:47:05.418Z,38.42
2018-05-13T23:49:33.725Z,40.03
2018-05-13T23:52:01.203Z,41.20
2018-05-13T23:54:28.971Z,38.65
2018-05-13T23:56:56.444Z,39.33
2018-05-13T23:59:23.937Z,40.22
